Time;durP1;ratioP1;P1;durP2;ratioP2;P2;SDS_P1;SDS_P2;PMS_P1;PMS_P2;Temp;Humidity;BMP_temperature;BMP_pressure;BME280_temperature;BME280_humidity;BME280_pressure;Samples;Min_cycle;Max_cycle;Signal;HPM_P1;HPM_P2
2021/12/27 00:01:00;;;;;;;44.00;36.63;;;8.40;90.10;;;;;;4964602;28;20054;-80
2021/12/27 00:03:26;;;;;;;41.13;35.90;;;8.40;90.20;;;;;;4938075;28;20051;-80
2021/12/27 00:05:53;;;;;;;40.08;35.58;;;8.40;90.20;;;;;;4958911;28;20030;-80
2021/12/27 00:08:19;;;;;;;40.30;34.03;;;8.40;90.20;;;;;;4960019;28;20046;-80
2021/12/27 00:10:44;;;;;;;41.30;36.72;;;8.40;90.20;;;;;;4954111;28;20661;-80
2021/12/27 00:13:10;;;;;;;40.50;36.10;;;8.40;90.20;;;;;;4951888;28;20081;-81
2021/12/27 00:15:36;;;;;;;38.10;34.00;;;8.40;90.10;;;;;;4955933;28;20039;-81
2021/12/27 00:18:03;;;;;;;39.33;34.72;;;8.40;90.10;;;;;;4962392;28;20035;-81
2021/12/27 00:20:29;;;;;;;41.65;34.85;;;8.50;90.00;;;;;;4954745;28;20035;-80
2021/12/27 00:22:54;;;;;;;38.40;33.72;;;8.50;90.00;;;;;;4951285;28;20428;-80
2021/12/27 00:25:20;;;;;;;41.28;34.17;;;8.50;90.00;;;;;;4953753;28;20124;-79
2021/12/27 00:27:46;;;;;;;39.08;34.22;;;8.50;90.10;;;;;;4955171;28;20130;-80
2021/12/27 00:30:13;;;;;;;37.88;33.13;;;8.50;90.00;;;;;;4966681;28;20114;-80
2021/12/27 00:32:43;;;;;;;37.72;32.33;;;8.50;90.10;;;;;;4953465;28;20039;-79
2021/12/27 00:35:09;;;;;;;37.55;32.97;;;8.50;90.10;;;;;;4958627;28;20504;-80
2021/12/27 00:37:35;;;;;;;36.13;32.20;;;8.50;90.10;;;;;;4941715;28;20086;-80
2021/12/27 00:40:02;;;;;;;37.83;32.85;;;8.50;90.10;;;;;;4969826;28;20513;-79
2021/12/27 00:42:28;;;;;;;38.55;33.80;;;8.50;90.10;;;;;;4952841;28;20043;-80
2021/12/27 00:44:54;;;;;;;40.13;34.60;;;8.40;90.10;;;;;;4938613;28;20046;-80
2021/12/27 00:47:19;;;;;;;36.75;32.72;;;8.40;90.10;;;;;;4959920;28;20090;-79
2021/12/27 00:49:45;;;;;;;35.45;31.60;;;8.40;90.10;;;;;;4973270;28;20043;-78
2021/12/27 00:52:11;;;;;;;36.28;32.38;;;8.40;90.00;;;;;;4960329;28;20136;-78
2021/12/27 00:54:36;;;;;;;38.50;33.72;;;8.40;90.00;;;;;;4959924;28;20031;-78
2021/12/27 00:57:03;;;;;;;40.20;33.33;;;8.40;90.00;;;;;;4963194;28;20122;-79
2021/12/27 00:59:29;;;;;;;38.00;32.42;;;8.30;90.10;;;;;;4963904;28;20039;-79
2021/12/27 01:01:56;;;;;;;37.20;32.60;;;8.30;90.10;;;;;;4957996;28;20082;-79
2021/12/27 01:04:22;;;;;;;36.13;32.25;;;8.40;90.10;;;;;;4957840;28;20078;-79
2021/12/27 01:06:47;;;;;;;36.30;31.23;;;8.40;90.10;;;;;;4961875;28;20537;-79
2021/12/27 01:09:21;;;;;;;36.17;31.65;;;8.30;90.10;;;;;;4955027;28;20416;-78
2021/12/27 01:14:43;;;;;;;35.10;30.88;;;8.30;90.10;;;;;;4955210;28;20134;-78
2021/12/27 01:17:10;;;;;;;37.90;31.60;;;8.30;90.00;;;;;;4964302;28;20046;-78
2021/12/27 01:19:36;;;;;;;35.03;31.23;;;8.30;90.00;;;;;;4958527;28;20043;-78
2021/12/27 01:22:02;;;;;;;35.50;30.98;;;8.30;90.00;;;;;;4967482;28;20054;-78
2021/12/27 01:24:28;;;;;;;36.78;30.38;;;8.30;89.90;;;;;;4961535;28;20110;-79
2021/12/27 01:26:54;;;;;;;33.92;29.98;;;8.30;89.90;;;;;;4967981;28;20130;-80
2021/12/27 01:29:19;;;;;;;35.13;29.73;;;8.30;89.90;;;;;;4960365;28;20035;-79
2021/12/27 01:31:45;;;;;;;33.47;27.38;;;8.30;89.80;;;;;;4954745;28;20074;-79
2021/12/27 01:34:11;;;;;;;29.13;25.95;;;8.30;89.80;;;;;;4963520;28;20043;-79
2021/12/27 01:36:37;;;;;;;29.30;25.90;;;8.30;89.90;;;;;;4963938;28;20031;-80
2021/12/27 01:39:05;;;;;;;26.55;23.52;;;8.30;89.80;;;;;;4970483;28;20039;-79
2021/12/27 01:41:31;;;;;;;27.17;23.35;;;8.40;89.80;;;;;;4957731;28;20492;-79
2021/12/27 01:43:57;;;;;;;24.77;21.10;;;8.40;89.80;;;;;;4960551;28;20084;-78
2021/12/27 01:46:26;;;;;;;26.88;21.45;;;8.40;89.70;;;;;;4956047;28;20051;-78
2021/12/27 01:48:56;;;;;;;23.70;19.30;;;8.40;89.70;;;;;;4957238;28;20064;-78
2021/12/27 01:51:24;;;;;;;23.77;20.17;;;8.40;89.60;;;;;;4963800;28;20125;-78
2021/12/27 01:53:50;;;;;;;21.58;18.73;;;8.40;89.60;;;;;;4961465;28;20035;-79
2021/12/27 01:56:20;;;;;;;21.48;17.58;;;8.40;89.60;;;;;;4935141;28;20051;-78
2021/12/27 01:58:48;;;;;;;21.52;17.42;;;8.40;89.60;;;;;;4936476;29;20214;-78
2021/12/27 02:01:14;;;;;;;19.75;16.88;;;8.40;89.60;;;;;;4926366;29;20477;-78
2021/12/27 02:03:41;;;;;;;18.83;15.82;;;8.40;89.50;;;;;;4937243;29;20047;-77
2021/12/27 02:06:08;;;;;;;20.05;16.42;;;8.40;89.50;;;;;;4950529;29;20050;-78
2021/12/27 02:08:36;;;;;;;18.40;15.50;;;8.40;89.50;;;;;;4937966;28;20054;-79
2021/12/27 02:11:02;;;;;;;17.65;15.35;;;8.40;89.50;;;;;;4937193;29;20457;-78
2021/12/27 02:13:28;;;;;;;17.65;15.13;;;8.50;89.50;;;;;;4952331;29;20480;-79
2021/12/27 02:15:53;;;;;;;17.00;14.82;;;8.40;89.40;;;;;;4933730;29;20039;-79
2021/12/27 02:18:19;;;;;;;17.33;14.00;;;8.40;89.30;;;;;;4939855;29;20074;-79
2021/12/27 02:20:46;;;;;;;15.38;13.73;;;8.40;89.30;;;;;;4940960;29;20059;-80
2021/12/27 02:23:17;;;;;;;17.25;14.10;;;8.40;89.20;;;;;;4949688;29;20043;-79
2021/12/27 02:25:45;;;;;;;18.77;15.13;;;8.40;88.90;;;;;;4933061;29;20080;-79
2021/12/27 02:28:11;;;;;;;19.35;16.15;;;8.40;88.90;;;;;;4937316;29;20072;-79
2021/12/27 02:30:39;;;;;;;19.15;16.20;;;8.40;88.90;;;;;;4930150;29;20122;-79
2021/12/27 02:33:06;;;;;;;18.95;16.52;;;8.40;89.00;;;;;;4934923;29;20127;-78
2021/12/27 02:35:34;;;;;;;20.10;17.17;;;8.40;89.00;;;;;;4948781;29;20095;-80
2021/12/27 02:38:01;;;;;;;22.77;19.40;;;8.40;88.90;;;;;;4940339;29;20039;-80
2021/12/27 02:40:30;;;;;;;22.55;18.35;;;8.40;88.80;;;;;;4940729;29;20036;-79
2021/12/27 02:43:04;;;;;;;18.63;16.10;;;8.50;88.80;;;;;;4906850;29;20048;-79
2021/12/27 02:45:32;;;;;;;20.00;17.77;;;8.50;88.90;;;;;;4939841;29;20035;-79
2021/12/27 02:47:58;;;;;;;21.40;18.58;;;8.50;88.90;;;;;;4949306;29;20392;-79
2021/12/27 02:50:25;;;;;;;21.58;18.95;;;8.50;88.90;;;;;;4936468;29;20111;-79
2021/12/27 02:52:51;;;;;;;23.67;20.05;;;8.50;88.90;;;;;;4950332;28;20071;-79
2021/12/27 02:55:18;;;;;;;22.58;20.13;;;8.50;88.90;;;;;;4952833;28;20077;-80
2021/12/27 02:57:45;;;;;;;22.95;19.52;;;8.50;88.90;;;;;;4958639;28;20035;-80
2021/12/27 03:00:19;;;;;;;23.67;20.17;;;8.50;88.90;;;;;;4970711;28;20035;-80
2021/12/27 03:02:47;;;;;;;23.30;20.35;;;8.50;88.90;;;;;;4956358;28;20048;-80
2021/12/27 03:05:16;;;;;;;22.05;19.63;;;8.60;89.00;;;;;;4964821;28;20066;-80
2021/12/27 03:07:44;;;;;;;21.80;19.48;;;8.50;88.90;;;;;;4956903;28;20043;-80
2021/12/27 03:10:12;;;;;;;22.88;19.40;;;8.50;89.00;;;;;;4941206;28;20399;-80
2021/12/27 03:12:38;;;;;;;22.38;18.20;;;8.50;89.00;;;;;;4957203;28;20023;-80
2021/12/27 03:15:09;;;;;;;19.73;17.63;;;8.50;89.10;;;;;;4961240;28;20065;-79
2021/12/27 03:17:36;;;;;;;20.65;17.55;;;8.60;89.20;;;;;;4959579;28;20113;-79
2021/12/27 03:20:04;;;;;;;19.00;16.08;;;8.60;89.20;;;;;;4953982;28;20039;-79
2021/12/27 03:22:30;;;;;;;18.17;15.07;;;8.50;89.20;;;;;;4937077;29;20420;-80
2021/12/27 03:24:56;;;;;;;16.40;14.40;;;8.60;89.30;;;;;;4959433;28;20525;-80
2021/12/27 03:27:22;;;;;;;14.43;12.20;;;8.60;89.30;;;;;;4947317;28;20180;-78
2021/12/27 03:29:47;;;;;;;13.57;12.15;;;8.60;89.30;;;;;;4957721;28;20105;-79
2021/12/27 03:32:14;;;;;;;15.82;12.32;;;8.60;89.30;;;;;;4966733;28;20094;-79
2021/12/27 03:34:52;;;;;;;13.57;12.02;;;8.60;89.30;;;;;;4934742;29;20053;-79
2021/12/27 03:37:18;;;;;;;14.75;11.82;;;8.70;89.40;;;;;;4962221;28;20692;-79
2021/12/27 03:39:43;;;;;;;15.32;13.43;;;8.60;89.30;;;;;;4958385;28;20047;-79
2021/12/27 03:42:09;;;;;;;16.15;13.90;;;8.60;89.40;;;;;;4955416;28;20490;-79
2021/12/27 03:44:35;;;;;;;15.30;13.70;;;8.60;89.40;;;;;;4960436;28;20492;-79
2021/12/27 03:47:00;;;;;;;20.77;17.45;;;8.60;89.30;;;;;;4959896;28;20353;-79
2021/12/27 03:49:26;;;;;;;24.83;19.48;;;8.60;89.30;;;;;;4969880;28;20041;-79
2021/12/27 03:51:52;;;;;;;20.17;17.98;;;8.60;89.10;;;;;;4952318;28;20055;-79
2021/12/27 03:54:17;;;;;;;23.60;18.98;;;8.60;88.60;;;;;;4962531;28;20039;-79
2021/12/27 03:56:43;;;;;;;21.55;19.25;;;8.50;88.90;;;;;;4967747;28;20057;-79
2021/12/27 03:59:37;;;;;;;23.00;18.65;;;8.40;88.30;;;;;;4962576;28;20352;-78
2021/12/27 04:02:04;;;;;;;20.90;18.67;;;8.40;88.70;;;;;;4972770;28;20051;-78
2021/12/27 04:04:30;;;;;;;21.85;19.23;;;8.30;88.40;;;;;;4938752;29;20035;-78
2021/12/27 04:06:56;;;;;;;23.75;20.77;;;8.30;88.90;;;;;;4962737;28;20409;-78
2021/12/27 04:09:22;;;;;;;23.88;21.13;;;8.30;88.90;;;;;;4960290;28;20113;-78
2021/12/27 04:11:47;;;;;;;23.98;20.52;;;8.40;88.70;;;;;;4952363;28;20042;-78
2021/12/27 04:14:13;;;;;;;23.38;20.80;;;8.40;88.70;;;;;;4954242;28;20034;-79
2021/12/27 04:16:39;;;;;;;23.08;20.42;;;8.40;88.70;;;;;;4961124;28;20086;-78
2021/12/27 04:19:04;;;;;;;22.42;19.85;;;8.40;88.60;;;;;;4955710;28;20042;-79
2021/12/27 04:21:30;;;;;;;22.40;19.27;;;8.40;88.50;;;;;;4968149;28;20027;-79
2021/12/27 04:23:56;;;;;;;21.67;18.60;;;8.40;88.30;;;;;;4958188;28;20045;-79
2021/12/27 04:26:22;;;;;;;22.20;19.58;;;8.50;88.30;;;;;;4957420;28;20086;-78
2021/12/27 04:28:49;;;;;;;22.55;18.45;;;8.50;88.30;;;;;;4958884;28;20043;-77
2021/12/27 04:31:15;;;;;;;21.70;19.25;;;8.50;88.20;;;;;;4951639;28;20506;-77
2021/12/27 04:33:41;;;;;;;21.90;18.90;;;8.50;88.20;;;;;;4955512;28;20062;-77
2021/12/27 04:36:08;;;;;;;20.27;17.92;;;8.50;88.30;;;;;;4965939;28;20506;-77
2021/12/27 04:38:34;;;;;;;21.23;18.90;;;8.50;88.30;;;;;;4947958;28;20054;-77
2021/12/27 04:41:00;;;;;;;19.65;17.33;;;8.50;88.20;;;;;;4956633;28;20043;-77
2021/12/27 04:43:26;;;;;;;21.40;18.27;;;8.40;87.60;;;;;;4939633;28;20077;-77
2021/12/27 04:45:53;;;;;;;24.02;21.27;;;8.40;88.00;;;;;;4968966;28;20063;-77
2021/12/27 04:48:20;;;;;;;23.13;19.35;;;8.20;87.80;;;;;;4959644;28;20081;-78
2021/12/27 04:50:46;;;;;;;21.25;18.88;;;8.20;88.50;;;;;;4953766;28;20479;-79
2021/12/27 04:53:12;;;;;;;26.70;21.15;;;8.20;88.50;;;;;;4968455;28;20049;-78
2021/12/27 04:55:38;;;;;;;22.05;19.60;;;8.20;88.60;;;;;;4965247;28;20047;-79
2021/12/27 04:58:05;;;;;;;21.88;18.83;;;8.30;88.60;;;;;;4957779;28;20039;-78
2021/12/27 05:00:31;;;;;;;21.63;18.92;;;8.30;88.60;;;;;;4939215;29;20039;-78
2021/12/27 05:02:58;;;;;;;23.73;19.27;;;8.40;88.40;;;;;;4962720;28;20364;-78
2021/12/27 05:05:25;;;;;;;21.48;17.83;;;8.40;88.20;;;;;;4954284;28;20043;-78
2021/12/27 05:07:51;;;;;;;22.52;18.75;;;8.30;88.20;;;;;;4953900;28;20042;-78
2021/12/27 05:10:17;;;;;;;21.65;19.23;;;8.30;88.30;;;;;;4954315;28;20488;-78
2021/12/27 05:12:43;;;;;;;18.60;16.63;;;8.30;88.40;;;;;;4954378;28;20114;-78
2021/12/27 05:15:09;;;;;;;17.90;15.45;;;8.40;88.20;;;;;;4937004;29;20062;-79
2021/12/27 05:17:35;;;;;;;20.50;16.95;;;8.40;88.20;;;;;;4958449;28;20031;-78
2021/12/27 05:20:04;;;;;;;17.05;14.93;;;8.40;88.20;;;;;;4964333;28;20154;-78
2021/12/27 05:22:31;;;;;;;17.17;14.73;;;8.50;88.10;;;;;;4953007;28;20036;-77
2021/12/27 05:24:57;;;;;;;15.10;13.50;;;8.50;87.90;;;;;;4967022;28;20042;-77
2021/12/27 05:27:23;;;;;;;13.98;12.43;;;8.50;87.80;;;;;;4966350;28;20043;-77
2021/12/27 05:29:49;;;;;;;14.52;12.13;;;8.50;87.70;;;;;;4958175;28;20087;-77
2021/12/27 05:32:15;;;;;;;13.93;12.13;;;8.60;87.80;;;;;;4964206;28;20070;-77
2021/12/27 05:34:41;;;;;;;14.45;12.30;;;8.60;87.40;;;;;;4965305;28;20039;-79
2021/12/27 05:37:06;;;;;;;13.90;12.48;;;8.50;87.40;;;;;;4971953;28;20034;-79
2021/12/27 05:39:33;;;;;;;14.75;12.82;;;8.50;87.30;;;;;;4959370;28;20031;-79
2021/12/27 05:41:59;;;;;;;15.25;13.35;;;8.50;87.20;;;;;;4962307;28;20038;-79
2021/12/27 05:44:25;;;;;;;14.82;13.23;;;8.50;87.40;;;;;;4970226;28;20034;-78
2021/12/27 05:46:51;;;;;;;16.45;14.55;;;8.50;87.40;;;;;;4955473;28;20415;-78
2021/12/27 05:49:17;;;;;;;15.68;13.98;;;8.50;87.40;;;;;;4960742;28;20043;-79
2021/12/27 05:51:45;;;;;;;18.25;15.13;;;8.50;87.30;;;;;;4961180;28;20479;-79
2021/12/27 05:54:13;;;;;;;17.40;14.45;;;8.50;87.40;;;;;;4961567;28;20043;-78
2021/12/27 05:56:39;;;;;;;17.05;14.43;;;8.50;87.30;;;;;;4969171;28;20046;-79
2021/12/27 05:59:05;;;;;;;17.83;14.85;;;8.50;87.30;;;;;;4959816;28;20142;-79
2021/12/27 06:01:31;;;;;;;21.50;16.33;;;8.50;87.40;;;;;;4955698;28;20042;-79
2021/12/27 06:03:58;;;;;;;17.27;14.90;;;8.50;87.40;;;;;;4960476;28;20038;-79
2021/12/27 06:06:25;;;;;;;19.75;15.52;;;8.50;87.40;;;;;;4966061;28;20070;-80
2021/12/27 06:08:51;;;;;;;16.27;14.27;;;8.50;87.40;;;;;;4966428;28;20127;-79
2021/12/27 06:11:16;;;;;;;16.55;14.57;;;8.50;87.50;;;;;;4972805;28;20672;-80
2021/12/27 06:13:43;;;;;;;18.50;15.38;;;8.50;87.60;;;;;;4943540;28;20039;-78
2021/12/27 06:16:10;;;;;;;15.32;12.95;;;8.60;87.70;;;;;;4968759;28;20521;-79
2021/12/27 06:18:36;;;;;;;16.48;14.20;;;8.60;87.80;;;;;;4959251;28;20043;-80
2021/12/27 06:21:02;;;;;;;14.90;13.30;;;8.60;87.50;;;;;;4963464;28;20456;-80
2021/12/27 06:23:27;;;;;;;14.18;12.65;;;8.60;87.50;;;;;;4952646;28;20122;-81
2021/12/27 06:25:53;;;;;;;16.27;14.40;;;8.60;87.50;;;;;;4971457;28;20177;-80
2021/12/27 06:28:19;;;;;;;12.77;11.30;;;8.60;87.60;;;;;;4955157;28;20104;-79
2021/12/27 06:30:44;;;;;;;13.48;12.05;;;8.60;87.30;;;;;;4957365;28;20045;-79
2021/12/27 06:33:11;;;;;;;13.88;12.45;;;8.60;87.10;;;;;;4953255;28;20039;-79
2021/12/27 06:35:37;;;;;;;14.25;12.18;;;8.60;87.30;;;;;;4957481;28;20031;-79
2021/12/27 06:38:03;;;;;;;14.57;12.95;;;8.60;87.40;;;;;;4954300;28;20411;-78
2021/12/27 06:40:30;;;;;;;14.75;12.52;;;8.60;87.50;;;;;;4956457;28;20039;-78
2021/12/27 06:42:57;;;;;;;13.52;12.07;;;8.60;87.40;;;;;;4956155;28;20042;-78
2021/12/27 06:45:23;;;;;;;15.43;11.77;;;8.60;87.30;;;;;;4957572;28;20041;-79
2021/12/27 06:47:48;;;;;;;13.23;10.75;;;8.60;87.20;;;;;;4958198;28;20110;-79
2021/12/27 06:50:15;;;;;;;14.98;12.27;;;8.50;86.90;;;;;;4938385;28;20049;-80
2021/12/27 06:52:41;;;;;;;18.70;15.15;;;8.50;86.80;;;;;;4955924;28;20400;-80
2021/12/27 06:55:07;;;;;;;20.65;15.77;;;8.50;86.70;;;;;;4955494;28;20134;-80
2021/12/27 06:57:33;;;;;;;16.40;13.98;;;8.50;86.70;;;;;;4955714;28;20444;-76
2021/12/27 07:00:01;;;;;;;17.02;13.88;;;8.50;87.00;;;;;;4956719;28;20035;-76
2021/12/27 07:02:27;;;;;;;16.95;14.30;;;8.50;87.10;;;;;;4937021;28;20126;-75
2021/12/27 07:04:52;;;;;;;15.95;14.25;;;8.50;87.10;;;;;;4957202;28;20436;-76
2021/12/27 07:07:19;;;;;;;15.63;14.05;;;8.50;87.10;;;;;;4958679;28;20043;-75
2021/12/27 07:09:44;;;;;;;19.25;15.82;;;8.50;87.10;;;;;;4970376;28;20393;-76
2021/12/27 07:12:10;;;;;;;18.45;15.13;;;8.50;87.10;;;;;;4946553;28;20042;-76
2021/12/27 07:14:36;;;;;;;18.33;15.60;;;8.50;87.10;;;;;;4954289;28;20097;-75
2021/12/27 07:17:02;;;;;;;18.85;15.52;;;8.50;87.20;;;;;;4955174;28;20472;-75
2021/12/27 07:19:28;;;;;;;18.15;15.70;;;8.50;87.30;;;;;;4954211;28;20043;-79
2021/12/27 07:22:20;;;;;;;18.63;15.30;;;8.50;87.40;;;;;;4961041;28;20048;-79
2021/12/27 07:24:47;;;;;;;18.13;15.38;;;8.50;87.20;;;;;;4933139;28;20450;-80
2021/12/27 07:27:46;;;;;;;17.92;15.82;;;8.40;87.20;;;;;;4937680;28;20031;-80
2021/12/27 07:30:14;;;;;;;15.77;13.93;;;8.40;87.30;;;;;;4948446;28;20059;-79
2021/12/27 07:32:39;;;;;;;17.05;14.50;;;8.30;87.20;;;;;;4961738;28;20073;-79
2021/12/27 07:35:08;;;;;;;17.50;14.85;;;8.30;87.60;;;;;;4962008;28;20098;-81
2021/12/27 07:37:33;;;;;;;17.15;14.98;;;8.30;88.00;;;;;;4966803;28;20050;-80
2021/12/27 07:39:59;;;;;;;16.13;14.18;;;8.30;88.00;;;;;;4959628;28;20455;-80
2021/12/27 07:42:25;;;;;;;18.75;16.08;;;8.40;88.00;;;;;;4954121;28;20039;-82
2021/12/27 07:44:50;;;;;;;17.60;15.70;;;8.40;87.80;;;;;;4955078;28;20043;-81
2021/12/27 07:47:16;;;;;;;18.42;15.95;;;8.40;87.80;;;;;;4955252;28;20039;-80
2021/12/27 07:49:42;;;;;;;18.33;16.42;;;8.50;87.80;;;;;;4954946;28;20089;-81
2021/12/27 07:52:08;;;;;;;20.60;18.10;;;8.50;87.70;;;;;;4968140;28;20074;-81
2021/12/27 07:54:34;;;;;;;19.65;17.15;;;8.50;87.50;;;;;;4954408;28;20035;-81
2021/12/27 07:57:00;;;;;;;18.27;16.38;;;8.50;87.50;;;;;;4955705;28;20515;-80
2021/12/27 07:59:28;;;;;;;19.25;16.33;;;8.50;87.30;;;;;;4956708;28;20049;-80
2021/12/27 08:01:54;;;;;;;18.60;16.27;;;8.50;87.40;;;;;;4954671;29;20071;-80
2021/12/27 08:04:19;;;;;;;17.73;15.82;;;8.50;87.50;;;;;;4955201;29;20492;-80
2021/12/27 08:06:45;;;;;;;17.23;15.43;;;8.50;87.60;;;;;;4954190;29;20040;-80
2021/12/27 08:09:11;;;;;;;16.13;14.43;;;8.60;87.50;;;;;;4954228;29;20401;-80
2021/12/27 08:11:36;;;;;;;17.50;15.70;;;8.60;87.30;;;;;;4953861;29;20027;-80
2021/12/27 08:14:04;;;;;;;17.67;15.85;;;8.60;87.30;;;;;;4954271;28;20502;-80
2021/12/27 08:16:29;;;;;;;17.92;16.02;;;8.60;87.20;;;;;;4954920;29;20036;-80
2021/12/27 08:18:56;;;;;;;16.55;14.85;;;8.60;87.20;;;;;;4950317;29;20048;-80
2021/12/27 08:21:24;;;;;;;20.92;16.92;;;8.60;87.10;;;;;;4954742;28;20058;-80
2021/12/27 08:23:50;;;;;;;15.98;14.10;;;8.70;87.30;;;;;;4935290;29;20047;-81
2021/12/27 08:26:18;;;;;;;145.85;112.47;;;8.70;87.10;;;;;;4938076;29;20035;-81
2021/12/27 08:28:44;;;;;;;275.65;224.35;;;8.70;87.30;;;;;;4955060;29;20043;-79
2021/12/27 08:31:10;;;;;;;82.97;68.78;;;8.80;87.50;;;;;;4937880;28;20058;-80
2021/12/27 08:33:36;;;;;;;35.08;27.17;;;8.90;87.10;;;;;;4954407;29;20062;-81
2021/12/27 08:36:02;;;;;;;23.17;19.42;;;8.80;86.60;;;;;;4955001;29;20491;-81
2021/12/27 08:38:28;;;;;;;21.08;16.20;;;8.80;86.70;;;;;;4954886;29;20047;-80
2021/12/27 08:40:54;;;;;;;21.25;16.40;;;8.90;86.70;;;;;;4954861;29;20035;-80
2021/12/27 08:43:19;;;;;;;19.13;16.38;;;8.90;86.90;;;;;;4954562;28;20388;-81
2021/12/27 08:45:45;;;;;;;17.63;15.40;;;8.90;86.60;;;;;;4955272;29;20110;-82
2021/12/27 08:48:10;;;;;;;18.17;15.50;;;9.00;86.40;;;;;;4954089;29;20380;-77
2021/12/27 08:50:39;;;;;;;17.95;15.57;;;9.00;86.40;;;;;;4944485;28;20130;-77
2021/12/27 08:53:06;;;;;;;17.15;15.07;;;9.00;86.20;;;;;;4951675;28;20167;-77
2021/12/27 08:55:34;;;;;;;17.30;15.32;;;9.00;86.30;;;;;;4952061;28;20044;-77
2021/12/27 08:58:01;;;;;;;16.83;14.25;;;9.10;86.40;;;;;;4953501;28;20045;-77
2021/12/27 09:00:28;;;;;;;16.60;14.38;;;9.10;86.10;;;;;;4943769;28;20058;-77
2021/12/27 09:02:54;;;;;;;15.40;13.13;;;9.20;86.00;;;;;;4937337;29;20047;-77
2021/12/27 09:05:20;;;;;;;15.07;13.43;;;9.20;85.80;;;;;;4954047;29;20031;-77
2021/12/27 09:07:45;;;;;;;16.23;14.07;;;9.20;85.70;;;;;;4955690;28;20448;-76
2021/12/27 09:10:11;;;;;;;18.10;13.82;;;9.20;85.80;;;;;;4957199;29;20035;-77
2021/12/27 09:12:38;;;;;;;18.08;14.43;;;9.30;85.80;;;;;;4957543;29;20063;-81
2021/12/27 09:15:05;;;;;;;17.60;14.27;;;9.30;85.80;;;;;;4958216;29;20094;-82
2021/12/27 09:17:30;;;;;;;17.13;14.68;;;9.30;85.30;;;;;;4958355;29;20037;-82
2021/12/27 09:19:56;;;;;;;17.52;15.48;;;9.40;85.20;;;;;;4941728;28;20122;-82
2021/12/27 09:22:22;;;;;;;18.20;15.55;;;9.50;85.20;;;;;;4958856;29;20559;-82
2021/12/27 09:24:48;;;;;;;15.68;13.95;;;9.50;85.20;;;;;;4957705;29;20035;-82
2021/12/27 09:27:14;;;;;;;14.43;12.68;;;9.50;85.10;;;;;;4940811;29;20043;-82
2021/12/27 09:29:42;;;;;;;16.00;13.18;;;9.60;84.80;;;;;;4959022;29;20046;-81
2021/12/27 09:32:08;;;;;;;15.15;13.25;;;9.70;84.40;;;;;;4940555;29;20042;-77
2021/12/27 09:34:33;;;;;;;14.32;12.70;;;9.70;84.20;;;;;;4940300;29;20039;-78
2021/12/27 09:36:59;;;;;;;13.48;11.05;;;9.80;84.20;;;;;;4958512;29;20118;-82
2021/12/27 09:39:25;;;;;;;13.60;10.82;;;9.80;83.90;;;;;;4965990;28;20468;-82
2021/12/27 09:41:51;;;;;;;15.50;12.93;;;9.80;82.70;;;;;;4943927;29;20027;-82
2021/12/27 09:44:16;;;;;;;16.77;12.77;;;9.80;83.40;;;;;;4958692;29;20368;-86
2021/12/27 09:46:42;;;;;;;14.93;12.88;;;9.90;83.60;;;;;;4958781;29;20476;-82
2021/12/27 09:49:13;;;;;;;15.30;12.32;;;9.90;83.40;;;;;;4957900;28;20045;-83
2021/12/27 09:51:44;;;;;;;14.18;12.63;;;9.90;82.30;;;;;;4937490;28;20031;-79
2021/12/27 09:54:11;;;;;;;16.90;13.40;;;9.90;83.00;;;;;;4956273;28;20054;-80
2021/12/27 09:56:37;;;;;;;14.65;12.95;;;9.90;83.20;;;;;;4956744;28;20055;-81
2021/12/27 09:59:04;;;;;;;15.68;13.68;;;9.90;83.30;;;;;;4956762;29;20043;-80
2021/12/27 10:01:30;;;;;;;16.42;13.57;;;9.90;83.50;;;;;;4955948;29;20038;-79
2021/12/27 10:03:58;;;;;;;17.45;14.63;;;9.90;83.50;;;;;;4955951;29;20039;-79
2021/12/27 10:06:26;;;;;;;17.83;15.98;;;10.00;83.70;;;;;;4955947;29;20043;-79
2021/12/27 10:08:57;;;;;;;19.48;13.50;;;10.00;83.70;;;;;;4932902;29;20036;-80
2021/12/27 10:11:32;;;;;;;16.02;11.52;;;10.10;88.80;;;;;;4947335;29;20069;-80
2021/12/27 10:14:14;;;;;;;15.75;13.00;;;10.30;89.40;;;;;;4956942;29;20042;-81
2021/12/27 10:17:10;;;;;;;17.33;15.10;;;10.60;87.00;;;;;;4953003;29;20046;-82
2021/12/27 10:19:37;;;;;;;15.23;13.32;;;10.60;84.80;;;;;;4935341;28;20034;-81
2021/12/27 10:22:08;;;;;;;15.88;13.85;;;10.50;83.60;;;;;;4942685;29;20047;-81
2021/12/27 10:24:34;;;;;;;16.73;14.95;;;10.50;83.20;;;;;;4937665;29;20078;-81
2021/12/27 10:27:01;;;;;;;13.32;11.93;;;10.40;81.20;;;;;;4957842;28;20063;-81
2021/12/27 10:29:29;;;;;;;14.38;12.32;;;10.50;82.60;;;;;;4955891;28;20036;-82
2021/12/27 10:32:00;;;;;;;14.95;12.55;;;10.50;82.40;;;;;;4955752;28;20131;-82
2021/12/27 10:34:29;;;;;;;14.80;11.80;;;10.60;82.10;;;;;;4960320;28;20111;-80
2021/12/27 10:37:12;;;;;;;15.82;11.40;;;10.70;81.80;;;;;;4955199;28;20129;-82
2021/12/27 10:39:52;;;;;;;12.80;11.50;;;10.70;81.70;;;;;;4955915;28;20444;-79
2021/12/27 10:42:30;;;;;;;13.60;12.20;;;10.80;81.20;;;;;;4955685;28;20141;-80
2021/12/27 10:45:22;;;;;;;14.02;12.25;;;10.80;81.00;;;;;;4965500;28;20491;-80
2021/12/27 10:48:02;;;;;;;13.27;11.82;;;10.80;80.80;;;;;;4938032;29;20379;-81
2021/12/27 10:50:35;;;;;;;14.68;12.40;;;10.80;80.70;;;;;;4942244;29;20058;-81
2021/12/27 10:53:08;;;;;;;13.57;12.00;;;10.80;80.50;;;;;;4970301;28;20036;-81
2021/12/27 10:55:44;;;;;;;14.20;12.50;;;10.90;80.40;;;;;;4956799;28;20042;-81
2021/12/27 10:58:23;;;;;;;14.52;12.50;;;10.90;80.70;;;;;;4945950;29;20047;-80
2021/12/27 11:01:00;;;;;;;13.00;11.60;;;10.80;79.60;;;;;;4936872;29;20107;-80
2021/12/27 11:03:35;;;;;;;14.15;12.63;;;10.80;80.00;;;;;;4938045;29;20059;-82
2021/12/27 11:06:03;;;;;;;14.32;12.25;;;10.80;80.30;;;;;;4938214;29;20397;-82
2021/12/27 11:08:30;;;;;;;14.35;11.70;;;10.90;80.50;;;;;;4953486;28;20067;-81
2021/12/27 11:10:56;;;;;;;12.60;10.98;;;11.00;80.60;;;;;;4956044;28;20031;-80
2021/12/27 11:13:23;;;;;;;13.07;11.60;;;10.90;79.20;;;;;;4955148;28;20492;-80
2021/12/27 11:15:49;;;;;;;13.35;11.07;;;10.90;80.00;;;;;;4955675;29;20043;-80
2021/12/27 11:18:15;;;;;;;13.73;12.23;;;10.80;79.30;;;;;;4937252;29;20495;-78
2021/12/27 11:20:50;;;;;;;13.18;11.38;;;10.80;79.60;;;;;;4967644;28;20047;-77
2021/12/27 11:23:16;;;;;;;10.93;9.77;;;10.90;79.50;;;;;;4965717;28;20039;-77
2021/12/27 11:25:44;;;;;;;12.23;10.90;;;10.90;79.40;;;;;;4937834;29;20097;-77
2021/12/27 11:28:37;;;;;;;10.40;9.40;;;10.90;79.50;;;;;;4955803;29;20039;-77
2021/12/27 11:31:15;;;;;;;11.57;9.57;;;11.00;79.10;;;;;;4950730;28;20059;-77
2021/12/27 11:34:06;;;;;;;10.27;9.15;;;11.00;78.90;;;;;;4953581;28;20050;-78
2021/12/27 11:36:34;;;;;;;10.50;9.40;;;11.00;78.80;;;;;;4969884;28;20491;-77
2021/12/27 11:39:22;;;;;;;11.65;10.45;;;11.00;79.50;;;;;;4961540;28;20080;-77
2021/12/27 11:42:00;;;;;;;9.48;8.02;;;11.00;79.10;;;;;;4950291;29;20515;-81
2021/12/27 11:44:48;;;;;;;8.80;7.90;;;11.00;78.20;;;;;;4956231;28;20126;-81
2021/12/27 11:47:30;;;;;;;9.32;8.05;;;11.00;78.10;;;;;;4952446;28;20030;-80
2021/12/27 11:50:01;;;;;;;8.70;7.53;;;11.00;78.00;;;;;;4948092;28;20177;-81
2021/12/27 11:52:45;;;;;;;9.18;7.65;;;11.10;77.90;;;;;;4971247;28;20459;-81
2021/12/27 11:55:21;;;;;;;8.32;7.03;;;11.00;77.90;;;;;;4948317;28;20051;-81
2021/12/27 11:57:50;;;;;;;7.88;6.82;;;11.10;77.80;;;;;;4951264;28;20039;-80
2021/12/27 12:00:26;;;;;;;7.85;6.85;;;11.10;77.20;;;;;;4961590;28;20444;-80
2021/12/27 12:02:54;;;;;;;7.68;6.85;;;11.10;77.10;;;;;;4969809;28;20102;-81
2021/12/27 12:05:45;;;;;;;7.07;6.35;;;11.10;77.00;;;;;;4942272;29;20050;-80
2021/12/27 12:08:17;;;;;;;8.95;6.15;;;11.10;76.50;;;;;;4958203;28;20031;-80
2021/12/27 12:11:04;;;;;;;7.95;7.10;;;11.10;76.90;;;;;;4969906;28;20357;-80
2021/12/27 12:13:47;;;;;;;7.90;7.10;;;11.10;77.00;;;;;;4947091;28;20038;-80
2021/12/27 12:16:18;;;;;;;7.95;7.15;;;11.10;77.00;;;;;;4969578;28;20070;-81
2021/12/27 12:19:07;;;;;;;8.80;7.78;;;11.10;77.10;;;;;;4955785;28;20039;-81
2021/12/27 12:21:33;;;;;;;8.63;7.70;;;11.20;77.30;;;;;;4969955;28;20054;-80
2021/12/27 12:24:02;;;;;;;8.95;7.50;;;11.20;77.20;;;;;;4942499;28;20047;-80
2021/12/27 12:26:28;;;;;;;9.05;7.65;;;11.20;76.90;;;;;;4955595;28;20049;-80
2021/12/27 12:29:02;;;;;;;9.35;7.13;;;11.20;77.00;;;;;;4952197;28;20035;-81
2021/12/27 12:31:32;;;;;;;8.60;7.00;;;11.10;76.90;;;;;;4947345;28;20031;-80
2021/12/27 12:34:07;;;;;;;;;;;11.10;77.10;;;;;;4949173;28;20035;-78
2021/12/27 12:36:47;;;;;;;9.20;8.10;;;11.10;77.00;;;;;;4951384;28;19976;-79
2021/12/27 12:39:13;;;;;;;7.85;6.80;;;11.10;77.00;;;;;;4946713;28;20106;-79
2021/12/27 12:41:40;;;;;;;7.50;6.68;;;11.10;77.30;;;;;;4950766;28;20035;-79
2021/12/27 12:44:07;;;;;;;9.15;7.00;;;11.10;77.50;;;;;;4955818;29;20451;-79